Aviation Digital Data Service (ADDS)

Output produced by TAFs form (0746 UTC 29 May 2017)
found at http://www.aviationweather.gov/adds/tafs/
 
METAR text: LIML 290720Z 15005KT 090V230 CAVOK 25/12 Q1018 NOSIG
Conditions at: LIML (MILANO/LINATE , IT) observed 0720 UTC 29 May 2017
Temperature: 25.0°C (77°F)
Dewpoint: 12.0°C (54°F) [RH = 44%]
Pressure (altimeter): 30.06 inches Hg (1018.0 mb)
Winds: from the SSE (150 degrees) at 6 MPH (5 knots; 2.6 m/s)
Visibility: 6 or more miles (10+ km)
Ceiling: ceiling and visibility are OK
Clouds: unknown
Weather: no significant weather observed at this time

Forecast for: LIML (MILANO/LINATE , IT)
Text: TAF LIML 290500Z 2906/3006 09005KT 9999 SCT070
Forecast period: 0600 UTC 29 May 2017 to 0600 UTC 30 May 2017
Forecast type: FROM: standard forecast or significant change
Winds: from the E (90 degrees) at 6 MPH (5 knots; 2.6 m/s)
Visibility: 6 or more miles (10+ km)
Clouds: scattered clouds at 7000 feet AGL
Weather: no significant weather forecast for this period